Edgewood, Minnesota
Current Conditions -  °F | °C
As of 6:16 PM on Wednesday 22 Oct 2014 (Local Time) from KCBG Reporting Station
Scattered Clouds Scattered Clouds  
Wind Chill: 57°   Ceiling: Unl
Heat Index: 57°   Visibility: 10mi
Dew Point: 43°   Wind: 9mph
Humidity: 59%   Direction: 140°SE
Pressure: 30.01"   Gusts: NA
Location:  45.5649°N, 93.3413°W
Report Text: KCBG 222316Z AUTO 14008KT 10SM SCT075 14/06 A3001 RMK AO2
Loading
Personal Weather Stations






























Interactive Weather Map
Tropical Storm Tracking
New forecast layout! Learn more

10-Day Weather Forecast

Advertisements
Track Severe Weather on mobile